Time;durP1;ratioP1;P1;durP2;ratioP2;P2;SDS_P1;SDS_P2;PMS_P1;PMS_P2;Temp;Humidity;BMP_temperature;BMP_pressure;BME280_temperature;BME280_humidity;BME280_pressure;Samples;Min_cycle;Max_cycle;Signal;HPM_P1;HPM_P2
2022/11/25 00:01:24;;;;;;;;;6.00;4.00;;;;;;;;5083530;27;45468;-74
2022/11/25 00:03:51;;;;;;;;;4.75;4.00;;;;;;;;5082296;27;46348;-75
2022/11/25 00:06:16;;;;;;;;;5.00;3.50;;;;;;;;5083528;27;45687;-75
2022/11/25 00:08:42;;;;;;;;;3.00;2.00;;;;;;;;5081162;27;45397;-74
2022/11/25 00:11:08;;;;;;;;;4.00;2.75;;;;;;;;5097250;27;45381;-75
2022/11/25 00:13:34;;;;;;;;;5.00;3.00;;;;;;;;5079620;27;46909;-75
2022/11/25 00:16:06;;;;;;;;;4.00;2.00;;;;;;;;5081857;27;45396;-72
2022/11/25 00:18:31;;;;;;;;;3.25;3.00;;;;;;;;5081401;27;45360;-72
2022/11/25 00:20:57;;;;;;;;;3.50;2.50;;;;;;;;5078931;27;45262;-72
2022/11/25 00:23:22;;;;;;;;;4.25;2.00;;;;;;;;5084986;27;46012;-72
2022/11/25 00:25:47;;;;;;;;;9.25;5.00;;;;;;;;5080973;27;45362;-72
2022/11/25 00:28:13;;;;;;;;;6.00;3.25;;;;;;;;5081153;27;45323;-73
2022/11/25 00:30:38;;;;;;;;;6.75;3.00;;;;;;;;5080958;27;45468;-73
2022/11/25 00:33:03;;;;;;;;;4.50;2.25;;;;;;;;5082692;27;46118;-73
2022/11/25 00:35:28;;;;;;;;;4.00;3.00;;;;;;;;5085368;27;45378;-73
2022/11/25 00:37:54;;;;;;;;;3.00;3.00;;;;;;;;5080496;27;45351;-73
2022/11/25 00:40:19;;;;;;;;;3.50;3.50;;;;;;;;5080668;28;45378;-72
2022/11/25 00:45:28;;;;;;;;;4.00;3.00;;;;;;;;5087901;27;46309;-73
2022/11/25 00:47:53;;;;;;;;;2.50;2.50;;;;;;;;5084105;27;45269;-73
2022/11/25 00:50:18;;;;;;;;;4.25;2.00;;;;;;;;5080481;27;45328;-72
2022/11/25 00:52:44;;;;;;;;;3.00;2.00;;;;;;;;5082315;27;47660;-73
2022/11/25 00:55:09;;;;;;;;;4.00;4.00;;;;;;;;5080422;27;45288;-73
2022/11/25 00:57:34;;;;;;;;;6.00;4.00;;;;;;;;5085230;27;45288;-73
2022/11/25 00:59:59;;;;;;;;;1.75;1.75;;;;;;;;5080501;27;45470;-73
2022/11/25 01:02:24;;;;;;;;;6.00;3.00;;;;;;;;5086286;27;46949;-73
2022/11/25 01:04:50;;;;;;;;;4.75;2.00;;;;;;;;5080839;27;45379;-73
2022/11/25 01:07:15;;;;;;;;;2.00;1.75;;;;;;;;5083031;27;45224;-73
2022/11/25 01:09:41;;;;;;;;;3.75;3.75;;;;;;;;5080010;27;45264;-73
2022/11/25 01:12:06;;;;;;;;;5.00;3.25;;;;;;;;5082042;27;45143;-73
2022/11/25 01:14:31;;;;;;;;;4.50;3.25;;;;;;;;5080001;27;45162;-73
2022/11/25 01:16:57;;;;;;;;;3.00;3.00;;;;;;;;5083438;27;45352;-73
2022/11/25 01:19:22;;;;;;;;;5.50;5.50;;;;;;;;5080167;27;45154;-73
2022/11/25 01:21:47;;;;;;;;;3.00;3.00;;;;;;;;5080798;27;45385;-73
2022/11/25 01:24:13;;;;;;;;;1.25;1.00;;;;;;;;5080034;27;45290;-73
2022/11/25 01:26:39;;;;;;;;;2.25;2.25;;;;;;;;5080895;27;45355;-72
2022/11/25 01:29:05;;;;;;;;;8.00;3.75;;;;;;;;5079538;27;45268;-72
2022/11/25 01:31:33;;;;;;;;;4.00;4.00;;;;;;;;5079553;27;46207;-73
2022/11/25 01:34:03;;;;;;;;;5.00;3.50;;;;;;;;5086973;27;45490;-72
2022/11/25 01:36:30;;;;;;;;;2.00;2.00;;;;;;;;5082398;27;45721;-73
2022/11/25 01:38:57;;;;;;;;;3.75;2.00;;;;;;;;5082281;27;45361;-73
2022/11/25 01:41:23;;;;;;;;;2.50;2.25;;;;;;;;5095263;27;45411;-73
2022/11/25 01:44:06;;;;;;;;;3.75;2.00;;;;;;;;5090849;27;45304;-73
2022/11/25 01:46:40;;;;;;;;;4.25;3.50;;;;;;;;5085625;27;45468;-73
2022/11/25 01:49:11;;;;;;;;;5.00;2.00;;;;;;;;5084885;27;45328;-72
2022/11/25 01:51:42;;;;;;;;;2.00;2.00;;;;;;;;5081498;27;45473;-72
2022/11/25 01:54:10;;;;;;;;;3.00;2.00;;;;;;;;5083599;27;45280;-72
2022/11/25 01:56:38;;;;;;;;;3.50;2.00;;;;;;;;5084020;27;45280;-73
2022/11/25 01:59:03;;;;;;;;;3.25;2.25;;;;;;;;5079975;27;45252;-72
2022/11/25 02:01:29;;;;;;;;;3.25;3.25;;;;;;;;5081592;27;45263;-73
2022/11/25 02:03:56;;;;;;;;;4.75;2.00;;;;;;;;5090969;27;45504;-73
2022/11/25 02:06:31;;;;;;;;;5.00;3.25;;;;;;;;5082901;27;45321;-73
2022/11/25 02:09:00;;;;;;;;;3.75;2.75;;;;;;;;5080822;27;45468;-73
2022/11/25 02:11:26;;;;;;;;;3.00;3.00;;;;;;;;5079277;27;45396;-74
2022/11/25 02:13:52;;;;;;;;;1.75;1.75;;;;;;;;5079638;27;45185;-74
2022/11/25 02:16:17;;;;;;;;;4.75;4.00;;;;;;;;5094180;27;45504;-73
2022/11/25 02:18:43;;;;;;;;;6.00;3.00;;;;;;;;5085972;27;45248;-73
2022/11/25 02:21:08;;;;;;;;;5.00;3.25;;;;;;;;5092108;27;45305;-73
2022/11/25 02:23:33;;;;;;;;;2.50;1.00;;;;;;;;5081336;27;45150;-74
2022/11/25 02:25:59;;;;;;;;;8.75;3.00;;;;;;;;5078199;27;45682;-74
2022/11/25 02:28:25;;;;;;;;;2.75;2.75;;;;;;;;5093802;27;45701;-73
2022/11/25 02:30:51;;;;;;;;;2.50;2.00;;;;;;;;5079014;27;45474;-73
2022/11/25 02:33:16;;;;;;;;;5.00;3.25;;;;;;;;5084402;27;45342;-74
2022/11/25 02:36:02;;;;;;;;;3.25;3.25;;;;;;;;5083924;27;45311;-74
2022/11/25 02:38:36;;;;;;;;;2.25;2.25;;;;;;;;5078099;27;45813;-74
2022/11/25 02:41:13;;;;;;;;;2.00;2.00;;;;;;;;5079545;27;46512;-74
2022/11/25 02:43:38;;;;;;;;;3.75;3.00;;;;;;;;5078463;27;45314;-73
2022/11/25 02:46:03;;;;;;;;;5.25;2.50;;;;;;;;5079779;27;45641;-73
2022/11/25 02:48:30;;;;;;;;;2.25;1.25;;;;;;;;5082111;27;45519;-73
2022/11/25 02:50:55;;;;;;;;;3.25;2.00;;;;;;;;5090859;27;45321;-73
2022/11/25 02:53:20;;;;;;;;;4.00;4.00;;;;;;;;5080549;27;45347;-73
2022/11/25 02:55:46;;;;;;;;;3.50;2.00;;;;;;;;5078853;27;45259;-73
2022/11/25 02:58:12;;;;;;;;;5.75;2.25;;;;;;;;5092071;27;45431;-73
2022/11/25 03:00:37;;;;;;;;;4.00;3.00;;;;;;;;5078616;27;45334;-73
2022/11/25 03:03:03;;;;;;;;;3.00;1.50;;;;;;;;5081383;27;45376;-73
2022/11/25 03:05:28;;;;;;;;;2.25;2.25;;;;;;;;5078880;27;45252;-73
2022/11/25 03:07:53;;;;;;;;;4.00;2.00;;;;;;;;5080400;27;45381;-73
2022/11/25 03:10:18;;;;;;;;;3.00;2.00;;;;;;;;5078640;27;46052;-73
2022/11/25 03:12:44;;;;;;;;;3.00;2.00;;;;;;;;5085354;27;45272;-73
2022/11/25 03:15:09;;;;;;;;;4.75;3.25;;;;;;;;5078650;27;45291;-73
2022/11/25 03:17:35;;;;;;;;;2.50;2.50;;;;;;;;5085271;27;45493;-73
2022/11/25 03:20:00;;;;;;;;;4.50;3.00;;;;;;;;5078349;27;45283;-73
2022/11/25 03:22:25;;;;;;;;;8.00;3.00;;;;;;;;5081173;27;45108;-73
2022/11/25 03:24:50;;;;;;;;;5.00;3.00;;;;;;;;5081864;27;45340;-73
2022/11/25 03:27:16;;;;;;;;;2.00;1.25;;;;;;;;5079859;27;45358;-74
2022/11/25 03:29:41;;;;;;;;;4.00;1.50;;;;;;;;5078446;27;46381;-74
2022/11/25 03:32:06;;;;;;;;;3.50;2.00;;;;;;;;5082584;27;45335;-74
2022/11/25 03:34:31;;;;;;;;;3.75;2.00;;;;;;;;5091267;27;45429;-74
2022/11/25 03:36:57;;;;;;;;;4.50;1.25;;;;;;;;5083907;27;45330;-74
2022/11/25 03:39:22;;;;;;;;;3.25;2.00;;;;;;;;5087527;27;45309;-74
2022/11/25 03:41:47;;;;;;;;;2.50;2.00;;;;;;;;5082342;27;45487;-73
2022/11/25 03:44:13;;;;;;;;;2.75;1.00;;;;;;;;5081795;27;45426;-73
2022/11/25 03:46:38;;;;;;;;;3.25;2.75;;;;;;;;5083101;27;45705;-74
2022/11/25 03:49:03;;;;;;;;;3.50;2.00;;;;;;;;5081300;27;45273;-73
2022/11/25 03:51:28;;;;;;;;;1.75;1.75;;;;;;;;5083638;27;45361;-73
2022/11/25 03:53:53;;;;;;;;;2.75;1.00;;;;;;;;5081266;27;45535;-73
2022/11/25 03:56:19;;;;;;;;;4.75;4.25;;;;;;;;5084151;27;45371;-73
2022/11/25 03:58:44;;;;;;;;;2.00;2.00;;;;;;;;5081564;27;45385;-73
2022/11/25 04:01:09;;;;;;;;;3.25;3.00;;;;;;;;5083204;27;44719;-73
2022/11/25 04:03:34;;;;;;;;;5.00;4.00;;;;;;;;5081799;27;45442;-73
2022/11/25 04:05:59;;;;;;;;;3.25;2.50;;;;;;;;5080119;27;46244;-73
2022/11/25 04:08:26;;;;;;;;;2.50;2.00;;;;;;;;5082896;27;45412;-73
2022/11/25 04:10:51;;;;;;;;;4.00;2.00;;;;;;;;5081915;27;45296;-73
2022/11/25 04:13:16;;;;;;;;;4.75;2.50;;;;;;;;5083828;27;45338;-73
2022/11/25 04:15:46;;;;;;;;;4.25;2.00;;;;;;;;5081491;27;45157;-73
2022/11/25 04:18:11;;;;;;;;;2.75;2.75;;;;;;;;5083361;27;46186;-73
2022/11/25 04:20:37;;;;;;;;;3.25;3.00;;;;;;;;5080944;27;45365;-73
2022/11/25 04:23:02;;;;;;;;;4.25;3.00;;;;;;;;5087214;27;45441;-73
2022/11/25 04:25:27;;;;;;;;;2.25;2.25;;;;;;;;5081161;27;45586;-73
2022/11/25 04:27:52;;;;;;;;;2.00;2.00;;;;;;;;5082240;27;46383;-74
2022/11/25 04:30:18;;;;;;;;;5.00;2.00;;;;;;;;5089587;27;45224;-73
2022/11/25 04:32:43;;;;;;;;;5.25;3.50;;;;;;;;5084176;27;45434;-73
2022/11/25 04:35:08;;;;;;;;;7.50;4.00;;;;;;;;5085581;27;45337;-73
2022/11/25 04:37:33;;;;;;;;;6.25;3.75;;;;;;;;5086960;27;45282;-73
2022/11/25 04:39:58;;;;;;;;;5.00;5.00;;;;;;;;5081158;27;45291;-73
2022/11/25 04:42:35;;;;;;;;;7.50;2.00;;;;;;;;5081336;27;45263;-73
2022/11/25 04:45:01;;;;;;;;;4.50;3.00;;;;;;;;5079831;27;45429;-73
2022/11/25 04:47:27;;;;;;;;;5.25;3.00;;;;;;;;5081883;27;46295;-73
2022/11/25 04:49:52;;;;;;;;;4.25;3.00;;;;;;;;5080922;27;45180;-73
2022/11/25 04:52:17;;;;;;;;;2.00;2.00;;;;;;;;5083840;27;45517;-73
2022/11/25 04:54:43;;;;;;;;;8.50;2.00;;;;;;;;5080392;27;45361;-73
2022/11/25 04:57:11;;;;;;;;;4.75;3.25;;;;;;;;5083287;27;45351;-73
2022/11/25 04:59:39;;;;;;;;;4.75;3.00;;;;;;;;5080383;27;45472;-73
2022/11/25 05:02:05;;;;;;;;;4.50;3.00;;;;;;;;5082260;27;45454;-73
2022/11/25 05:04:30;;;;;;;;;6.00;4.00;;;;;;;;5080296;27;45524;-73
2022/11/25 05:06:56;;;;;;;;;4.25;2.75;;;;;;;;5081801;27;45480;-73
2022/11/25 05:09:21;;;;;;;;;4.75;3.75;;;;;;;;5080339;27;45157;-75
2022/11/25 05:11:46;;;;;;;;;4.50;3.00;;;;;;;;5082280;27;45247;-74
2022/11/25 05:14:11;;;;;;;;;2.00;2.00;;;;;;;;5089282;27;45894;-74
2022/11/25 05:16:37;;;;;;;;;3.00;2.25;;;;;;;;5082412;27;45184;-74
2022/11/25 05:19:02;;;;;;;;;6.50;2.25;;;;;;;;5079946;27;45335;-74
2022/11/25 05:21:27;;;;;;;;;3.00;3.00;;;;;;;;5082223;27;45361;-74
2022/11/25 05:23:55;;;;;;;;;3.00;3.00;;;;;;;;5084309;27;45356;-73
2022/11/25 05:26:20;;;;;;;;;4.75;3.75;;;;;;;;5080247;27;46198;-73
2022/11/25 05:28:46;;;;;;;;;6.00;4.25;;;;;;;;5080008;27;45529;-73
2022/11/25 05:31:11;;;;;;;;;5.00;3.00;;;;;;;;5079862;27;45407;-73
2022/11/25 05:33:36;;;;;;;;;4.00;2.00;;;;;;;;5086438;27;45334;-73
2022/11/25 05:36:02;;;;;;;;;8.00;2.75;;;;;;;;5087974;27;47231;-73
2022/11/25 05:38:28;;;;;;;;;4.00;3.00;;;;;;;;5091620;27;45339;-73
2022/11/25 05:40:58;;;;;;;;;5.50;4.50;;;;;;;;5092657;27;45580;-73
2022/11/25 05:43:24;;;;;;;;;4.25;4.25;;;;;;;;5085029;27;45944;-73
2022/11/25 05:45:49;;;;;;;;;6.00;3.25;;;;;;;;5093262;27;45322;-73
2022/11/25 05:48:14;;;;;;;;;9.75;5.75;;;;;;;;5082013;27;45332;-73
2022/11/25 05:50:39;;;;;;;;;5.75;3.75;;;;;;;;5079677;27;45503;-73
2022/11/25 05:53:04;;;;;;;;;7.00;4.50;;;;;;;;5094790;27;46134;-73
2022/11/25 05:55:30;;;;;;;;;10.00;4.50;;;;;;;;5077945;28;45330;-73
2022/11/25 05:57:57;;;;;;;;;4.50;3.00;;;;;;;;5086838;27;45716;-73
2022/11/25 06:00:22;;;;;;;;;4.75;4.25;;;;;;;;5079583;27;45358;-73
2022/11/25 06:02:50;;;;;;;;;4.00;2.25;;;;;;;;5081426;27;45454;-73
2022/11/25 06:05:15;;;;;;;;;7.50;4.50;;;;;;;;5079729;27;45317;-73
2022/11/25 06:07:40;;;;;;;;;6.25;3.00;;;;;;;;5082133;27;45332;-73
2022/11/25 06:10:06;;;;;;;;;10.25;4.00;;;;;;;;5088998;27;45233;-72
2022/11/25 06:12:31;;;;;;;;;4.25;3.50;;;;;;;;5090410;27;45536;-73
2022/11/25 06:14:56;;;;;;;;;9.50;3.00;;;;;;;;5079126;27;45244;-72
2022/11/25 06:17:21;;;;;;;;;9.25;4.25;;;;;;;;5081559;27;45474;-72
2022/11/25 06:19:47;;;;;;;;;4.50;4.50;;;;;;;;5078875;27;45268;-72
2022/11/25 06:22:12;;;;;;;;;7.25;5.75;;;;;;;;5079371;27;45325;-73
2022/11/25 06:24:38;;;;;;;;;8.50;3.25;;;;;;;;5078623;27;45387;-73
2022/11/25 06:27:03;;;;;;;;;7.25;4.00;;;;;;;;5079215;27;45157;-73
2022/11/25 06:29:28;;;;;;;;;6.25;3.00;;;;;;;;5079205;27;45206;-74
2022/11/25 06:31:53;;;;;;;;;5.75;4.25;;;;;;;;5079296;27;45272;-74
2022/11/25 06:34:18;;;;;;;;;8.50;4.00;;;;;;;;5083130;27;45463;-74
2022/11/25 06:36:44;;;;;;;;;3.25;3.00;;;;;;;;5080205;27;45451;-74
2022/11/25 06:39:09;;;;;;;;;5.50;3.00;;;;;;;;5081510;27;45446;-74
2022/11/25 06:41:34;;;;;;;;;5.00;4.00;;;;;;;;5081997;27;45287;-73
2022/11/25 06:43:59;;;;;;;;;8.75;7.75;;;;;;;;5088370;27;45308;-74
2022/11/25 06:46:24;;;;;;;;;16.75;13.25;;;;;;;;5088252;27;44747;-74
2022/11/25 06:48:50;;;;;;;;;21.75;18.00;;;;;;;;5079515;27;45596;-74
2022/11/25 06:51:15;;;;;;;;;15.00;9.00;;;;;;;;5080939;27;45324;-74
2022/11/25 06:53:41;;;;;;;;;6.75;6.75;;;;;;;;5087800;27;46631;-74
2022/11/25 06:56:08;;;;;;;;;7.50;5.50;;;;;;;;5085757;27;45469;-75
2022/11/25 06:58:34;;;;;;;;;8.50;5.75;;;;;;;;5090984;27;45386;-74
2022/11/25 07:01:00;;;;;;;;;7.25;5.00;;;;;;;;5091813;27;45441;-74
2022/11/25 07:03:25;;;;;;;;;7.75;4.00;;;;;;;;5083056;27;46164;-74
2022/11/25 07:05:51;;;;;;;;;13.00;6.00;;;;;;;;5092739;27;45425;-76
2022/11/25 07:08:16;;;;;;;;;8.25;4.50;;;;;;;;5083995;27;45430;-74
2022/11/25 07:10:41;;;;;;;;;7.00;5.00;;;;;;;;5082093;27;45303;-73
2022/11/25 07:13:06;;;;;;;;;12.00;7.75;;;;;;;;5087278;27;45535;-72
2022/11/25 07:15:33;;;;;;;;;8.75;3.50;;;;;;;;5080286;27;45287;-73
2022/11/25 07:17:58;;;;;;;;;4.75;4.00;;;;;;;;5083957;27;45198;-73
2022/11/25 07:20:24;;;;;;;;;4.75;4.00;;;;;;;;5083212;27;45282;-75
2022/11/25 07:22:49;;;;;;;;;7.25;3.00;;;;;;;;5094427;27;47843;-74
2022/11/25 07:25:14;;;;;;;;;8.75;7.50;;;;;;;;5082062;27;45191;-74
2022/11/25 07:27:39;;;;;;;;;14.75;7.75;;;;;;;;5084290;27;45403;-74
2022/11/25 07:30:05;;;;;;;;;6.25;4.50;;;;;;;;5091017;27;45444;-74
2022/11/25 07:32:31;;;;;;;;;11.50;5.00;;;;;;;;5091416;27;46289;-74
2022/11/25 07:34:57;;;;;;;;;4.00;3.25;;;;;;;;5085818;27;45540;-75
2022/11/25 07:37:22;;;;;;;;;5.50;5.00;;;;;;;;5081889;27;45468;-75
2022/11/25 07:39:47;;;;;;;;;15.50;9.75;;;;;;;;5081204;27;45691;-74
2022/11/25 07:42:12;;;;;;;;;8.75;6.25;;;;;;;;5083405;27;45460;-74
2022/11/25 07:44:37;;;;;;;;;8.00;4.75;;;;;;;;5082665;27;45287;-74
2022/11/25 07:47:03;;;;;;;;;9.25;6.25;;;;;;;;5089033;27;45491;-74
2022/11/25 07:49:28;;;;;;;;;8.00;5.00;;;;;;;;5081407;27;45437;-74
2022/11/25 07:51:54;;;;;;;;;3.00;3.00;;;;;;;;5083766;27;45451;-73
2022/11/25 07:54:20;;;;;;;;;6.75;2.75;;;;;;;;5082017;27;45269;-74
2022/11/25 07:56:47;;;;;;;;;8.75;4.50;;;;;;;;5090635;27;45315;-74
2022/11/25 07:59:13;;;;;;;;;8.75;4.50;;;;;;;;5083739;27;45518;-73
2022/11/25 08:01:39;;;;;;;;;6.75;4.50;;;;;;;;5084773;27;45259;-74
2022/11/25 08:04:05;;;;;;;;;8.25;5.50;;;;;;;;5088919;27;45291;-74
2022/11/25 08:06:31;;;;;;;;;10.25;7.75;;;;;;;;5089771;27;45225;-76
2022/11/25 08:08:56;;;;;;;;;4.25;4.25;;;;;;;;5082960;27;44949;-76
2022/11/25 08:11:23;;;;;;;;;5.50;4.25;;;;;;;;5083146;27;46168;-75
2022/11/25 08:13:49;;;;;;;;;8.25;5.75;;;;;;;;5080571;27;45464;-75
2022/11/25 08:16:15;;;;;;;;;5.50;4.00;;;;;;;;5086153;27;45318;-75
2022/11/25 08:18:41;;;;;;;;;5.50;4.00;;;;;;;;5079636;27;45502;-75
2022/11/25 08:21:10;;;;;;;;;9.00;4.25;;;;;;;;5088602;27;45281;-75
2022/11/25 08:23:36;;;;;;;;;6.75;4.50;;;;;;;;5093836;27;45240;-75
2022/11/25 08:26:12;;;;;;;;;8.25;6.75;;;;;;;;5095080;27;45461;-75
2022/11/25 08:28:38;;;;;;;;;9.50;4.25;;;;;;;;5087941;27;45296;-75
2022/11/25 08:31:04;;;;;;;;;9.25;9.25;;;;;;;;5091724;27;48029;-75
2022/11/25 08:33:30;;;;;;;;;10.25;8.25;;;;;;;;5083470;27;45460;-74
2022/11/25 08:35:55;;;;;;;;;10.75;8.25;;;;;;;;5085650;27;45275;-74
2022/11/25 08:38:20;;;;;;;;;11.25;11.25;;;;;;;;5085249;27;45485;-76
2022/11/25 08:40:46;;;;;;;;;16.25;10.50;;;;;;;;5082230;27;45343;-74
2022/11/25 08:43:11;;;;;;;;;9.25;8.00;;;;;;;;5083435;27;45313;-75
2022/11/25 08:45:37;;;;;;;;;10.50;9.50;;;;;;;;5080471;27;45231;-75
2022/11/25 08:48:02;;;;;;;;;11.00;9.75;;;;;;;;5083836;27;45343;-75
2022/11/25 08:50:28;;;;;;;;;14.75;9.50;;;;;;;;5080119;27;45515;-75
2022/11/25 08:52:53;;;;;;;;;12.00;9.75;;;;;;;;5085303;27;45344;-75
2022/11/25 08:55:18;;;;;;;;;14.75;12.75;;;;;;;;5092112;27;45530;-75
2022/11/25 08:57:43;;;;;;;;;17.00;13.00;;;;;;;;5081299;27;45336;-75
2022/11/25 09:00:09;;;;;;;;;11.00;10.25;;;;;;;;5079687;27;45462;-76
2022/11/25 09:02:34;;;;;;;;;18.00;11.50;;;;;;;;5079853;27;45326;-76
2022/11/25 09:04:59;;;;;;;;;11.50;10.50;;;;;;;;5080322;27;44870;-78
2022/11/25 09:07:25;;;;;;;;;11.25;11.25;;;;;;;;5079577;27;45408;-76
2022/11/25 09:09:50;;;;;;;;;19.50;13.75;;;;;;;;5079652;27;45431;-76
2022/11/25 09:12:15;;;;;;;;;18.75;11.50;;;;;;;;5079589;27;45562;-75
2022/11/25 09:14:40;;;;;;;;;11.00;9.00;;;;;;;;5081213;27;45374;-75
2022/11/25 09:17:09;;;;;;;;;7.50;7.00;;;;;;;;5083016;27;45191;-74
2022/11/25 09:19:35;;;;;;;;;9.00;5.50;;;;;;;;5079398;27;46107;-74
2022/11/25 09:22:00;;;;;;;;;9.25;6.00;;;;;;;;5086182;27;45646;-74
2022/11/25 09:24:26;;;;;;;;;8.50;6.00;;;;;;;;5087491;27;45382;-75
2022/11/25 09:26:51;;;;;;;;;8.75;4.00;;;;;;;;5082184;27;46446;-74
2022/11/25 09:29:16;;;;;;;;;7.00;7.00;;;;;;;;5085607;27;45631;-74
2022/11/25 09:31:41;;;;;;;;;4.00;4.00;;;;;;;;5080661;27;45426;-73
2022/11/25 09:34:08;;;;;;;;;6.00;4.50;;;;;;;;5084015;27;45500;-76
2022/11/25 09:36:33;;;;;;;;;6.75;5.75;;;;;;;;5080225;27;45275;-74
2022/11/25 09:38:59;;;;;;;;;4.50;1.75;;;;;;;;5079877;27;45509;-72
2022/11/25 09:47:29;;;;;;;;;6.50;5.00;;;;;;;;5080953;27;45509;-74
2022/11/25 09:50:01;;;;;;;;;6.25;4.00;;;;;;;;5079555;27;46347;-75
2022/11/25 09:52:45;;;;;;;;;7.25;5.00;;;;;;;;5082375;27;45602;-71
2022/11/25 09:55:18;;;;;;;;;6.00;5.00;;;;;;;;5090300;27;45441;-73
2022/11/25 09:58:02;;;;;;;;;6.75;4.00;;;;;;;;5090464;27;45252;-73
2022/11/25 10:00:37;;;;;;;;;9.00;4.00;;;;;;;;5079086;27;45083;-73
2022/11/25 10:03:03;;;;;;;;;4.50;4.25;;;;;;;;5083071;27;45338;-73
2022/11/25 10:05:40;;;;;;;;;5.25;4.00;;;;;;;;5079232;28;45350;-73
2022/11/25 10:08:14;;;;;;;;;7.00;6.00;;;;;;;;5078590;27;45402;-74
2022/11/25 10:10:45;;;;;;;;;5.50;5.50;;;;;;;;5078919;27;45227;-73
2022/11/25 10:13:25;;;;;;;;;7.50;5.00;;;;;;;;5078540;27;45597;-74
2022/11/25 10:15:51;;;;;;;;;4.00;3.00;;;;;;;;5078999;27;45350;-74
2022/11/25 10:18:25;;;;;;;;;6.00;5.00;;;;;;;;5079888;27;45502;-74
2022/11/25 10:20:51;;;;;;;;;6.00;4.00;;;;;;;;5090815;27;45292;-74
2022/11/25 10:23:32;;;;;;;;;5.75;2.75;;;;;;;;5081430;27;45321;-74
2022/11/25 10:26:00;;;;;;;;;2.00;2.00;;;;;;;;5079626;27;45177;-74
2022/11/25 10:28:32;;;;;;;;;6.00;4.25;;;;;;;;5081464;27;45330;-73
2022/11/25 10:30:57;;;;;;;;;4.25;4.25;;;;;;;;5079170;27;46390;-74
2022/11/25 10:33:35;;;;;;;;;8.50;4.00;;;;;;;;5086872;27;45291;-73
2022/11/25 10:36:00;;;;;;;;;8.25;6.00;;;;;;;;5084201;27;45216;-73
2022/11/25 10:38:29;;;;;;;;;10.50;6.00;;;;;;;;5080416;27;45444;-73
2022/11/25 10:40:54;;;;;;;;;6.00;3.75;;;;;;;;5078625;27;45343;-74
2022/11/25 10:43:20;;;;;;;;;6.00;5.00;;;;;;;;5083616;27;45295;-74
2022/11/25 10:45:56;;;;;;;;;9.25;5.50;;;;;;;;5082701;27;45392;-73
2022/11/25 10:48:29;;;;;;;;;7.00;3.75;;;;;;;;5083409;27;45456;-75
2022/11/25 10:51:01;;;;;;;;;5.75;2.75;;;;;;;;5082055;27;45310;-74
2022/11/25 10:53:29;;;;;;;;;2.75;2.75;;;;;;;;5085986;27;45439;-73
2022/11/25 10:56:00;;;;;;;;;6.50;3.00;;;;;;;;5083165;27;45385;-74
2022/11/25 10:58:31;;;;;;;;;8.50;4.00;;;;;;;;5086614;27;45293;-74
2022/11/25 11:01:14;;;;;;;;;14.50;4.75;;;;;;;;5082373;27;45472;-73
2022/11/25 11:03:41;;;;;;;;;6.50;5.50;;;;;;;;5087390;27;45423;-75
2022/11/25 11:06:26;;;;;;;;;6.00;4.75;;;;;;;;5082371;27;45709;-73
2022/11/25 11:08:51;;;;;;;;;6.50;3.75;;;;;;;;5081881;27;45344;-75
2022/11/25 11:11:18;;;;;;;;;5.25;4.00;;;;;;;;5083525;27;45503;-75
2022/11/25 11:13:44;;;;;;;;;5.50;4.00;;;;;;;;5092557;27;45442;-76
2022/11/25 11:16:21;;;;;;;;;6.00;2.25;;;;;;;;5093852;27;45581;-76
2022/11/25 11:18:46;;;;;;;;;2.75;2.75;;;;;;;;5084484;27;45247;-75
2022/11/25 11:21:27;;;;;;;;;6.50;3.75;;;;;;;;5082015;27;45427;-75
2022/11/25 11:23:54;;;;;;;;;4.50;4.00;;;;;;;;5082029;27;45384;-74
2022/11/25 11:26:32;;;;;;;;;6.00;3.67;;;;;;;;5082853;27;45271;-75
2022/11/25 11:28:59;;;;;;;;;4.33;2.67;;;;;;;;5087660;27;45461;-75
2022/11/25 11:31:27;;;;;;;;;3.50;3.00;;;;;;;;5080411;27;46449;-75
2022/11/25 11:34:02;;;;;;;;;5.33;3.00;;;;;;;;5088188;27;45385;-75
2022/11/25 11:36:33;;;;;;;;;5.00;3.67;;;;;;;;5084299;27;45241;-77
2022/11/25 11:38:58;;;;;;;;;8.00;4.00;;;;;;;;5087328;27;45435;-77
2022/11/25 11:41:26;;;;;;;;;3.00;3.00;;;;;;;;5081791;27;45425;-79
2022/11/25 11:44:18;;;;;;;;;6.00;3.00;;;;;;;;5087744;27;45443;-75
2022/11/25 11:46:46;;;;;;;;;9.33;3.67;;;;;;;;5090327;27;45602;-77
2022/11/25 11:49:14;;;;;;;;;6.00;4.00;;;;;;;;5084140;27;46078;-77
2022/11/25 11:52:02;;;;;;;;;5.33;3.00;;;;;;;;5086207;27;45354;-77
2022/11/25 11:54:50;;;;;;;;;5.33;2.00;;;;;;;;5092505;27;45493;-75
2022/11/25 11:57:33;;;;;;;;;4.33;2.00;;;;;;;;5095497;27;45614;-75
2022/11/25 12:00:03;;;;;;;;;15.33;4.00;;;;;;;;5093553;27;45347;-77
2022/11/25 12:02:48;;;;;;;;;5.67;3.67;;;;;;;;5083794;27;45627;-77
2022/11/25 12:05:16;;;;;;;;;3.00;3.00;;;;;;;;5080739;27;45307;-77
2022/11/25 12:07:55;;;;;;;;;5.00;4.00;;;;;;;;5086943;27;45454;-77
2022/11/25 12:10:26;;;;;;;;;5.00;4.00;;;;;;;;5080699;27;45298;-77
2022/11/25 12:12:51;;;;;;;;;4.33;3.00;;;;;;;;5080563;27;45265;-76
2022/11/25 12:15:23;;;;;;;;;4.00;3.00;;;;;;;;5081217;27;45377;-75
2022/11/25 12:17:54;;;;;;;;;5.00;3.67;;;;;;;;5085969;27;45493;-75
2022/11/25 12:20:28;;;;;;;;;5.00;3.00;;;;;;;;5094074;27;45523;-76
2022/11/25 12:23:00;;;;;;;;;5.67;3.00;;;;;;;;5094328;27;46815;-75
2022/11/25 12:25:28;;;;;;;;;4.00;3.00;;;;;;;;5092298;27;45173;-75
2022/11/25 12:28:00;;;;;;;;;3.00;3.00;;;;;;;;5086470;27;45471;-74
2022/11/25 12:30:34;;;;;;;;;5.00;4.00;;;;;;;;5083405;27;45305;-75
2022/11/25 12:33:10;;;;;;;;;1.67;1.33;;;;;;;;5081751;27;45457;-73
2022/11/25 12:35:42;;;;;;;;;9.00;4.67;;;;;;;;5090490;27;45426;-74
2022/11/25 12:38:16;;;;;;;;;6.00;2.00;;;;;;;;5094142;27;45354;-73
2022/11/25 12:40:45;;;;;;;;;4.00;2.33;;;;;;;;5084973;27;47712;-72
2022/11/25 12:43:16;;;;;;;;;5.00;3.00;;;;;;;;5080384;28;46263;-74
2022/11/25 12:45:44;;;;;;;;;3.00;3.00;;;;;;;;5078536;27;45542;-72
2022/11/25 12:48:10;;;;;;;;;7.00;3.00;;;;;;;;5081275;28;45234;-72
2022/11/25 12:50:59;;;;;;;;;4.00;3.00;;;;;;;;5079479;27;45612;-73
2022/11/25 12:53:24;;;;;;;;;4.00;2.00;;;;;;;;5052334;28;45294;-72
2022/11/25 12:55:50;;;;;;;;;3.33;2.67;;;;;;;;5080538;27;45392;-73
2022/11/25 12:58:40;;;;;;;;;3.33;3.33;;;;;;;;5087304;27;45328;-72
2022/11/25 13:01:14;;;;;;;;;4.33;3.00;;;;;;;;5089280;27;45653;-74
2022/11/25 13:03:55;;;;;;;;;7.67;4.00;;;;;;;;5101083;27;45215;-73
2022/11/25 13:06:39;;;;;;;;;5.00;3.00;;;;;;;;5098981;27;45332;-72
2022/11/25 13:09:22;;;;;;;;;4.33;3.67;;;;;;;;5101695;27;45265;-72
2022/11/25 13:11:53;;;;;;;;;7.33;3.00;;;;;;;;5101218;27;45352;-72
2022/11/25 13:14:29;;;;;;;;;9.00;3.33;;;;;;;;5101016;27;45461;-72
2022/11/25 13:16:55;;;;;;;;;3.00;3.00;;;;;;;;5100905;27;45243;-72
2022/11/25 13:19:21;;;;;;;;;3.00;3.00;;;;;;;;5101140;27;45245;-72
2022/11/25 13:21:56;;;;;;;;;6.33;3.67;;;;;;;;5100672;27;44702;-72
2022/11/25 13:24:32;;;;;;;;;4.00;3.00;;;;;;;;5100874;27;45298;-72
2022/11/25 13:26:57;;;;;;;;;5.33;3.33;;;;;;;;5092995;27;45352;-72
2022/11/25 13:29:22;;;;;;;;;4.00;2.00;;;;;;;;5080260;28;45299;-72
2022/11/25 13:31:57;;;;;;;;;4.67;2.33;;;;;;;;5080389;28;45307;-72
2022/11/25 13:34:27;;;;;;;;;4.67;3.00;;;;;;;;5084707;27;46500;-72
2022/11/25 13:36:53;;;;;;;;;11.33;5.33;;;;;;;;5080017;28;45307;-72
2022/11/25 13:39:34;;;;;;;;;3.67;3.67;;;;;;;;5079837;28;45468;-72
2022/11/25 13:42:20;;;;;;;;;3.00;3.00;;;;;;;;5082194;27;45441;-71
2022/11/25 13:44:48;;;;;;;;;14.00;10.33;;;;;;;;5091350;27;45528;-72
2022/11/25 13:47:22;;;;;;;;;13.67;9.67;;;;;;;;5077962;27;45264;-72
2022/11/25 13:49:52;;;;;;;;;5.67;5.00;;;;;;;;5080012;28;45261;-72
2022/11/25 13:52:29;;;;;;;;;4.33;4.00;;;;;;;;5078557;28;45257;-72
2022/11/25 13:54:55;;;;;;;;;3.67;3.67;;;;;;;;5079709;28;45298;-72
2022/11/25 13:57:28;;;;;;;;;7.00;2.00;;;;;;;;5086334;27;45324;-72
2022/11/25 14:00:06;;;;;;;;;6.67;3.00;;;;;;;;5079709;28;45497;-72
2022/11/25 14:02:33;;;;;;;;;6.00;2.00;;;;;;;;5079287;27;45070;-73
2022/11/25 14:05:17;;;;;;;;;5.67;3.00;;;;;;;;5078377;28;48063;-71
2022/11/25 14:08:06;;;;;;;;;4.00;2.00;;;;;;;;5086952;27;45299;-72
2022/11/25 14:10:38;;;;;;;;;4.33;3.33;;;;;;;;5100286;27;45532;-72
2022/11/25 14:13:29;;;;;;;;;3.00;3.00;;;;;;;;5099943;27;45294;-72
2022/11/25 14:16:00;;;;;;;;;4.67;4.33;;;;;;;;5098076;27;47179;-71
2022/11/25 14:18:34;;;;;;;;;5.00;4.00;;;;;;;;5099413;27;45277;-71
2022/11/25 14:21:05;;;;;;;;;3.67;2.00;;;;;;;;5100029;27;45258;-71
2022/11/25 14:23:40;;;;;;;;;6.00;2.00;;;;;;;;5098490;27;44803;-71
2022/11/25 14:26:09;;;;;;;;;4.67;2.67;;;;;;;;5097854;27;47219;-71
2022/11/25 14:28:34;;;;;;;;;4.67;4.00;;;;;;;;5079897;28;45235;-72
2022/11/25 14:31:03;;;;;;;;;3.50;2.00;;;;;;;;5078857;27;45236;-71
2022/11/25 14:33:33;;;;;;;;;2.00;2.00;;;;;;;;5079418;28;45115;-71
2022/11/25 14:36:02;;;;;;;;;1.33;1.00;;;;;;;;5083619;27;45417;-75
2022/11/25 14:38:31;;;;;;;;;3.00;3.00;;;;;;;;5079635;28;45287;-71
2022/11/25 14:40:56;;;;;;;;;5.67;3.00;;;;;;;;5079363;28;45457;-71
2022/11/25 14:43:23;;;;;;;;;4.00;2.00;;;;;;;;5079291;27;45666;-71
2022/11/25 14:46:08;;;;;;;;;31.50;27.50;;;;;;;;5078833;28;46435;-74
2022/11/25 14:48:34;;;;;;;;;5.33;1.33;;;;;;;;5079330;28;45214;-71
2022/11/25 14:51:00;;;;;;;;;4.33;2.00;;;;;;;;5079024;28;45390;-71
2022/11/25 14:53:26;;;;;;;;;3.67;2.67;;;;;;;;5079178;28;45410;-71
2022/11/25 14:55:52;;;;;;;;;3.00;3.00;;;;;;;;5078750;28;45189;-71